sensor_id;sensor_type;location;lat;lon;timestamp;temperature;humidity
34061;DHT22;20336;-33.424;-70.638;2023-02-28T00:01:19;26.70;57.20
34061;DHT22;20336;-33.424;-70.638;2023-02-28T00:03:46;26.60;57.90
34061;DHT22;20336;-33.424;-70.638;2023-02-28T00:08:40;26.30;59.10
34061;DHT22;20336;-33.424;-70.638;2023-02-28T00:11:09;26.10;61.10
34061;DHT22;20336;-33.424;-70.638;2023-02-28T00:13:40;25.90;62.40
34061;DHT22;20336;-33.424;-70.638;2023-02-28T00:16:12;25.80;63.60
34061;DHT22;20336;-33.424;-70.638;2023-02-28T00:18:40;25.70;64.20
34061;DHT22;20336;-33.424;-70.638;2023-02-28T00:21:08;25.50;64.70
34061;DHT22;20336;-33.424;-70.638;2023-02-28T00:23:35;25.40;65.60
34061;DHT22;20336;-33.424;-70.638;2023-02-28T00:26:02;25.30;66.10
34061;DHT22;20336;-33.424;-70.638;2023-02-28T00:28:29;25.10;66.30
34061;DHT22;20336;-33.424;-70.638;2023-02-28T00:30:56;25.10;67.60
34061;DHT22;20336;-33.424;-70.638;2023-02-28T00:33:23;25.00;66.70
34061;DHT22;20336;-33.424;-70.638;2023-02-28T00:35:50;25.00;66.80
34061;DHT22;20336;-33.424;-70.638;2023-02-28T00:38:17;25.00;66.70
34061;DHT22;20336;-33.424;-70.638;2023-02-28T00:40:44;24.90;67.70
34061;DHT22;20336;-33.424;-70.638;2023-02-28T00:43:11;24.90;67.20
34061;DHT22;20336;-33.424;-70.638;2023-02-28T00:45:37;24.80;67.50
34061;DHT22;20336;-33.424;-70.638;2023-02-28T00:48:04;24.80;67.30
34061;DHT22;20336;-33.424;-70.638;2023-02-28T00:50:32;24.70;67.20
34061;DHT22;20336;-33.424;-70.638;2023-02-28T00:52:59;24.50;67.20
34061;DHT22;20336;-33.424;-70.638;2023-02-28T00:55:25;24.50;68.30
34061;DHT22;20336;-33.424;-70.638;2023-02-28T00:57:52;24.40;67.90
34061;DHT22;20336;-33.424;-70.638;2023-02-28T01:00:19;24.30;67.90
34061;DHT22;20336;-33.424;-70.638;2023-02-28T01:02:46;24.20;67.30
34061;DHT22;20336;-33.424;-70.638;2023-02-28T01:05:13;24.20;67.80
34061;DHT22;20336;-33.424;-70.638;2023-02-28T01:07:40;24.10;67.60
34061;DHT22;20336;-33.424;-70.638;2023-02-28T01:10:07;24.00;67.00
34061;DHT22;20336;-33.424;-70.638;2023-02-28T01:12:34;23.90;66.40
34061;DHT22;20336;-33.424;-70.638;2023-02-28T01:15:01;23.90;66.00
34061;DHT22;20336;-33.424;-70.638;2023-02-28T01:17:28;23.90;65.30
34061;DHT22;20336;-33.424;-70.638;2023-02-28T01:19:55;23.80;65.60
34061;DHT22;20336;-33.424;-70.638;2023-02-28T01:22:22;23.90;66.90
34061;DHT22;20336;-33.424;-70.638;2023-02-28T01:24:49;23.70;66.60
34061;DHT22;20336;-33.424;-70.638;2023-02-28T01:27:18;23.60;66.40
34061;DHT22;20336;-33.424;-70.638;2023-02-28T01:29:45;23.70;66.70
34061;DHT22;20336;-33.424;-70.638;2023-02-28T01:32:12;23.70;66.60
34061;DHT22;20336;-33.424;-70.638;2023-02-28T01:34:39;23.50;67.50
34061;DHT22;20336;-33.424;-70.638;2023-02-28T01:37:06;23.40;67.50
34061;DHT22;20336;-33.424;-70.638;2023-02-28T01:39:33;23.40;67.40
34061;DHT22;20336;-33.424;-70.638;2023-02-28T01:41:59;23.20;68.10
34061;DHT22;20336;-33.424;-70.638;2023-02-28T01:44:59;23.00;69.00
34061;DHT22;20336;-33.424;-70.638;2023-02-28T01:47:33;22.90;67.90
34061;DHT22;20336;-33.424;-70.638;2023-02-28T01:50:04;22.90;68.80
34061;DHT22;20336;-33.424;-70.638;2023-02-28T01:52:32;22.80;69.20
34061;DHT22;20336;-33.424;-70.638;2023-02-28T01:55:02;22.80;69.20
34061;DHT22;20336;-33.424;-70.638;2023-02-28T01:57:36;22.60;68.70
34061;DHT22;20336;-33.424;-70.638;2023-02-28T02:00:10;22.60;68.60
34061;DHT22;20336;-33.424;-70.638;2023-02-28T15:41:47;31.60;65.50
34061;DHT22;20336;-33.424;-70.638;2023-02-28T15:47:13;31.70;66.70
34061;DHT22;20336;-33.424;-70.638;2023-02-28T15:52:19;32.30;65.50
34061;DHT22;20336;-33.424;-70.638;2023-02-28T15:54:47;32.30;65.90
34061;DHT22;20336;-33.424;-70.638;2023-02-28T15:57:25;32.70;64.70
34061;DHT22;20336;-33.424;-70.638;2023-02-28T15:59:57;32.80;64.60
34061;DHT22;20336;-33.424;-70.638;2023-02-28T16:02:33;32.50;64.90
34061;DHT22;20336;-33.424;-70.638;2023-02-28T16:07:41;33.20;64.30
34061;DHT22;20336;-33.424;-70.638;2023-02-28T16:10:12;33.20;64.20
34061;DHT22;20336;-33.424;-70.638;2023-02-28T16:12:40;33.20;63.30
34061;DHT22;20336;-33.424;-70.638;2023-02-28T16:15:17;33.00;63.60
34061;DHT22;20336;-33.424;-70.638;2023-02-28T16:17:45;33.10;64.10
34061;DHT22;20336;-33.424;-70.638;2023-02-28T16:20:14;33.20;63.90
34061;DHT22;20336;-33.424;-70.638;2023-02-28T16:22:42;33.60;62.80
34061;DHT22;20336;-33.424;-70.638;2023-02-28T16:25:13;33.80;64.20
34061;DHT22;20336;-33.424;-70.638;2023-02-28T16:27:40;34.70;62.70
34061;DHT22;20336;-33.424;-70.638;2023-02-28T16:30:16;34.50;61.70
34061;DHT22;20336;-33.424;-70.638;2023-02-28T16:32:44;34.30;61.10
34061;DHT22;20336;-33.424;-70.638;2023-02-28T16:35:11;34.40;61.90
34061;DHT22;20336;-33.424;-70.638;2023-02-28T16:37:40;34.80;61.70
34061;DHT22;20336;-33.424;-70.638;2023-02-28T16:40:19;35.60;61.90
34061;DHT22;20336;-33.424;-70.638;2023-02-28T16:42:48;35.60;60.80
34061;DHT22;20336;-33.424;-70.638;2023-02-28T16:45:21;35.30;61.50
34061;DHT22;20336;-33.424;-70.638;2023-02-28T16:47:48;35.40;61.80
34061;DHT22;20336;-33.424;-70.638;2023-02-28T16:50:26;35.60;63.00
34061;DHT22;20336;-33.424;-70.638;2023-02-28T16:52:54;34.90;61.60
34061;DHT22;20336;-33.424;-70.638;2023-02-28T16:55:24;35.30;62.30
34061;DHT22;20336;-33.424;-70.638;2023-02-28T16:57:54;35.20;62.30
34061;DHT22;20336;-33.424;-70.638;2023-02-28T17:00:22;35.20;62.60
34061;DHT22;20336;-33.424;-70.638;2023-02-28T17:02:49;35.00;61.90
34061;DHT22;20336;-33.424;-70.638;2023-02-28T17:05:16;35.10;62.60
34061;DHT22;20336;-33.424;-70.638;2023-02-28T17:07:45;36.70;63.20
34061;DHT22;20336;-33.424;-70.638;2023-02-28T17:10:21;37.10;61.80
34061;DHT22;20336;-33.424;-70.638;2023-02-28T17:12:49;37.10;61.70
34061;DHT22;20336;-33.424;-70.638;2023-02-28T17:15:18;37.50;61.30
34061;DHT22;20336;-33.424;-70.638;2023-02-28T17:17:46;37.60;61.00
34061;DHT22;20336;-33.424;-70.638;2023-02-28T17:20:18;37.90;60.70
34061;DHT22;20336;-33.424;-70.638;2023-02-28T17:22:45;37.80;60.60
34061;DHT22;20336;-33.424;-70.638;2023-02-28T17:25:11;36.80;61.60
34061;DHT22;20336;-33.424;-70.638;2023-02-28T17:27:38;37.30;62.10
34061;DHT22;20336;-33.424;-70.638;2023-02-28T22:53:17;32.10;68.30
34061;DHT22;20336;-33.424;-70.638;2023-02-28T22:55:43;32.00;69.20
34061;DHT22;20336;-33.424;-70.638;2023-02-28T22:58:10;31.60;70.70
34061;DHT22;20336;-33.424;-70.638;2023-02-28T23:00:37;31.30;70.90
34061;DHT22;20336;-33.424;-70.638;2023-02-28T23:03:04;30.90;71.80
34061;DHT22;20336;-33.424;-70.638;2023-02-28T23:05:31;30.60;72.70
34061;DHT22;20336;-33.424;-70.638;2023-02-28T23:07:57;30.30;73.90
34061;DHT22;20336;-33.424;-70.638;2023-02-28T23:10:26;29.70;74.20
34061;DHT22;20336;-33.424;-70.638;2023-02-28T23:12:52;29.50;75.90
34061;DHT22;20336;-33.424;-70.638;2023-02-28T23:15:21;29.40;76.70
34061;DHT22;20336;-33.424;-70.638;2023-02-28T23:17:49;29.10;77.20
34061;DHT22;20336;-33.424;-70.638;2023-02-28T23:20:19;28.80;78.30
34061;DHT22;20336;-33.424;-70.638;2023-02-28T23:22:46;28.40;79.50
34061;DHT22;20336;-33.424;-70.638;2023-02-28T23:25:17;28.10;80.80
34061;DHT22;20336;-33.424;-70.638;2023-02-28T23:27:44;27.80;81.90
34061;DHT22;20336;-33.424;-70.638;2023-02-28T23:30:12;27.70;83.80
34061;DHT22;20336;-33.424;-70.638;2023-02-28T23:32:40;27.70;83.20
34061;DHT22;20336;-33.424;-70.638;2023-02-28T23:35:08;27.50;84.30
34061;DHT22;20336;-33.424;-70.638;2023-02-28T23:37:37;27.30;85.00
34061;DHT22;20336;-33.424;-70.638;2023-02-28T23:40:07;27.20;84.50
34061;DHT22;20336;-33.424;-70.638;2023-02-28T23:42:34;27.00;85.70
34061;DHT22;20336;-33.424;-70.638;2023-02-28T23:45:01;26.90;86.60
34061;DHT22;20336;-33.424;-70.638;2023-02-28T23:47:28;26.90;86.80
34061;DHT22;20336;-33.424;-70.638;2023-02-28T23:49:56;26.70;88.00
34061;DHT22;20336;-33.424;-70.638;2023-02-28T23:52:23;26.50;88.30
34061;DHT22;20336;-33.424;-70.638;2023-02-28T23:54:49;26.40;88.90
34061;DHT22;20336;-33.424;-70.638;2023-02-28T23:57:16;26.30;89.30
34061;DHT22;20336;-33.424;-70.638;2023-02-28T23:59:43;26.30;90.10
